createdAt,value
2023-03-04T00:02:24.485Z,95042.75
2023-03-04T00:05:27.710Z,95041.94
2023-03-04T00:08:32.564Z,95033.19
2023-03-04T00:11:35.952Z,95034.75
2023-03-04T00:14:39.124Z,95012.94
2023-03-04T00:17:42.713Z,95026.78
2023-03-04T00:20:46.268Z,95029.44
2023-03-04T00:23:51.451Z,95025.22
2023-03-04T00:26:54.534Z,95021.47
2023-03-04T00:29:57.762Z,95022.56
2023-03-04T00:33:01.131Z,95009.69
2023-03-04T00:36:04.837Z,95021.47
2023-03-04T00:39:09.375Z,95017.25
2023-03-04T00:42:12.436Z,95016.47
2023-03-04T00:45:15.602Z,95026.00
2023-03-04T00:48:18.791Z,95024.94
2023-03-04T00:51:21.916Z,95022.06
2023-03-04T00:54:26.466Z,95016.75
2023-03-04T00:57:29.607Z,95016.16
2023-03-04T01:00:32.677Z,95011.94
2023-03-04T01:03:35.818Z,95024.13
2023-03-04T01:06:38.951Z,95018.81
2023-03-04T01:09:43.596Z,95013.50
2023-03-04T01:12:47.110Z,94989.81
2023-03-04T01:15:50.207Z,95003.97
2023-03-04T01:18:53.339Z,95014.59
2023-03-04T01:21:56.441Z,95001.59
2023-03-04T01:25:01.034Z,94998.66
2023-03-04T01:28:04.279Z,94972.88
2023-03-04T01:31:07.561Z,94997.56
2023-03-04T01:34:10.876Z,94987.53
2023-03-04T01:37:14.905Z,94986.16
2023-03-04T01:40:19.964Z,94981.63
2023-03-04T01:43:25.799Z,94977.69
2023-03-04T01:46:29.713Z,94986.47
2023-03-04T01:49:32.882Z,94971.09
2023-03-04T01:52:36.020Z,94973.97
2023-03-04T01:55:40.600Z,94979.28
2023-03-04T01:58:44.542Z,94973.16
2023-03-04T02:01:49.227Z,94971.31
2023-03-04T02:04:52.344Z,94973.16
2023-03-04T02:07:57.340Z,94969.53
2023-03-04T02:11:01.839Z,94970.50
2023-03-04T02:14:05.259Z,94957.44
2023-03-04T02:17:12.905Z,94968.16
2023-03-04T02:20:29.677Z,94967.84
2023-03-04T02:23:39.109Z,94962.53
2023-03-04T02:26:44.312Z,94965.19
2023-03-04T02:29:47.548Z,94964.41
2023-03-04T02:32:50.710Z,94968.94
2023-03-04T02:35:53.901Z,94956.75
2023-03-04T02:39:02.309Z,94960.78
2023-03-04T02:42:07.368Z,94954.38
2023-03-04T02:45:38.425Z,94959.09
2023-03-04T02:48:41.694Z,94940.44
2023-03-04T02:51:45.007Z,94958.31
2023-03-04T02:54:48.280Z,94955.97
2023-03-04T02:57:53.291Z,94957.53
2023-03-04T03:00:56.561Z,94960.97
2023-03-04T03:03:59.666Z,94951.44
2023-03-04T03:07:02.872Z,94947.19
2023-03-04T03:10:06.613Z,94953.00
2023-03-04T03:13:11.100Z,94958.31
2023-03-04T03:16:14.293Z,94954.09
2023-03-04T03:19:17.418Z,94954.88
2023-03-04T03:22:20.505Z,94955.97
2023-03-04T03:25:23.621Z,94958.63
2023-03-04T03:28:28.173Z,94944.16
2023-03-04T03:31:31.260Z,94955.16
2023-03-04T03:34:34.485Z,94949.84
2023-03-04T03:37:37.693Z,94943.75
2023-03-04T03:40:40.807Z,94934.50
2023-03-04T03:43:45.395Z,94917.69
2023-03-04T03:46:48.481Z,94942.97
2023-03-04T03:49:51.605Z,94942.97
2023-03-04T03:52:54.940Z,94941.41
2023-03-04T03:55:59.344Z,94944.06
2023-03-04T03:59:03.863Z,94941.41
2023-03-04T04:02:07.054Z,94936.09
2023-03-04T04:05:11.471Z,94930.78
2023-03-04T04:08:15.823Z,94929.19
2023-03-04T04:11:19.068Z,94931.56
2023-03-04T04:14:23.602Z,94936.09
2023-03-04T04:17:26.701Z,94940.63
2023-03-04T04:20:29.831Z,94931.84
2023-03-04T04:23:33.099Z,94933.72
2023-03-04T04:26:36.154Z,94935.31
2023-03-04T04:29:41.508Z,94937.75
2023-03-04T04:32:44.667Z,94938.25
2023-03-04T04:35:47.869Z,94935.59
2023-03-04T04:38:51.081Z,94933.72
2023-03-04T04:41:54.225Z,94932.94
2023-03-04T04:44:58.847Z,94926.06
2023-03-04T04:48:02.070Z,94933.25
2023-03-04T04:51:05.562Z,94925.28
2023-03-04T04:54:08.685Z,94938.25
2023-03-04T04:57:11.786Z,94940.13
2023-03-04T05:00:19.033Z,94941.22
2023-03-04T05:03:23.633Z,94941.00
2023-03-04T05:06:27.000Z,94948.09
2023-03-04T05:09:30.126Z,94948.88
2023-03-04T05:12:33.384Z,94954.19
2023-03-04T05:15:39.394Z,94951.53
2023-03-04T05:18:42.901Z,94957.94
2023-03-04T05:21:46.033Z,94941.09
2023-03-04T05:24:49.200Z,94961.66
2023-03-04T05:27:52.293Z,94956.38
2023-03-04T05:30:56.804Z,94962.75
2023-03-04T05:33:59.904Z,94977.31
2023-03-04T05:37:02.983Z,94978.41
2023-03-04T05:40:07.258Z,94982.91
2023-03-04T05:43:10.778Z,94978.41
2023-03-04T05:46:16.853Z,94971.31
2023-03-04T05:49:20.254Z,94976.81
2023-03-04T05:52:23.365Z,94977.13
2023-03-04T05:55:27.816Z,94976.81
2023-03-04T05:58:31.277Z,94982.91
2023-03-04T06:01:35.819Z,94988.22
2023-03-04T06:04:38.958Z,94987.44
2023-03-04T06:07:43.247Z,94987.94
2023-03-04T06:10:46.593Z,94992.94
2023-03-04T06:13:49.798Z,94992.16
2023-03-04T06:16:54.396Z,94977.41
2023-03-04T06:19:57.596Z,94996.88
2023-03-04T06:23:00.742Z,94996.09
2023-03-04T06:26:04.048Z,94991.56
2023-03-04T06:29:07.905Z,94980.56
2023-03-04T06:32:12.480Z,94992.66
2023-03-04T06:35:17.433Z,94997.69
2023-03-04T06:38:20.863Z,95004.06
2023-03-04T06:41:23.965Z,94999.06
2023-03-04T06:44:27.104Z,95009.69
2023-03-04T06:47:32.033Z,94999.53
2023-03-04T06:50:35.400Z,95005.03
2023-03-04T06:53:39.119Z,95016.84
2023-03-04T06:56:42.371Z,95015.28
2023-03-04T06:59:45.489Z,95013.72
2023-03-04T07:02:50.026Z,95014.78
2023-03-04T07:05:53.155Z,95011.06
2023-03-04T07:08:56.351Z,95019.03
2023-03-04T07:11:59.526Z,95023.56
2023-03-04T07:15:02.623Z,95016.16
2023-03-04T07:18:07.259Z,95015.59
2023-03-04T07:21:10.446Z,95030.72
2023-03-04T07:24:13.630Z,95025.41
2023-03-04T07:27:16.715Z,95027.59
2023-03-04T07:30:20.041Z,95009.44
2023-03-04T07:33:24.708Z,95024.94
2023-03-04T07:36:28.457Z,95026.00
2023-03-04T07:39:31.520Z,95025.72
2023-03-04T07:42:34.696Z,95021.19
2023-03-04T07:45:38.391Z,95024.63
2023-03-04T07:48:42.854Z,95025.41
2023-03-04T07:51:46.048Z,95019.63
2023-03-04T07:54:49.161Z,95021.97
2023-03-04T07:57:52.327Z,95019.31
2023-03-04T08:00:55.460Z,95021.69
2023-03-04T08:04:00.754Z,95020.91
2023-03-04T08:07:04.041Z,95019.03
2023-03-04T08:10:08.184Z,95015.59
2023-03-04T08:13:11.644Z,95014.78
2023-03-04T08:16:16.595Z,95005.63
2023-03-04T08:19:21.169Z,95017.94
2023-03-04T08:22:24.387Z,95015.28
2023-03-04T08:25:27.855Z,95016.38
2023-03-04T08:28:30.981Z,95007.63
2023-03-04T08:31:34.988Z,95012.63
2023-03-04T08:34:40.900Z,94999.94
2023-03-04T08:37:45.115Z,95008.88
2023-03-04T08:40:53.879Z,95008.88
2023-03-04T08:43:57.173Z,95007.81
2023-03-04T08:47:00.295Z,94999.84
2023-03-04T08:50:05.183Z,95006.44
2023-03-04T08:53:08.340Z,94999.25
2023-03-04T08:56:12.445Z,94998.16
2023-03-04T08:59:15.643Z,94998.66
2023-03-04T09:02:18.862Z,94989.59
2023-03-04T09:05:23.475Z,94990.38
2023-03-04T09:08:26.636Z,94980.16
2023-03-04T09:11:29.825Z,94985.88
2023-03-04T09:14:35.801Z,94993.56
2023-03-04T09:17:39.319Z,94976.06
2023-03-04T09:20:43.996Z,94987.47
2023-03-04T09:23:47.173Z,94975.53
2023-03-04T09:26:51.875Z,94976.84
2023-03-04T09:29:54.915Z,94972.31
2023-03-04T09:32:58.055Z,94977.63
2023-03-04T09:36:02.669Z,94973.41
2023-03-04T09:39:06.249Z,94969.66
2023-03-04T09:42:13.282Z,94974.19
2023-03-04T09:45:21.429Z,94967.56
2023-03-04T09:48:28.822Z,94963.03
2023-03-04T09:51:56.769Z,94963.56
2023-03-04T09:55:07.344Z,94950.66
2023-03-04T09:58:22.373Z,94954.50
2023-03-04T10:01:32.676Z,94955.59
2023-03-04T10:04:40.795Z,94950.28
2023-03-04T10:07:50.089Z,94943.34
2023-03-04T10:10:54.001Z,94948.66
2023-03-04T10:14:06.182Z,94940.69
2023-03-04T10:17:15.626Z,94942.31
2023-03-04T10:20:23.793Z,94939.91
2023-03-04T10:23:30.522Z,94933.53
2023-03-04T10:26:34.309Z,94933.53
2023-03-04T10:29:37.934Z,94929.81
2023-03-04T10:32:47.226Z,94911.09
2023-03-04T10:35:56.871Z,94923.69
2023-03-04T10:39:03.801Z,94915.44
2023-03-04T10:42:08.613Z,94912.47
2023-03-04T10:45:28.003Z,94912.19
2023-03-04T10:48:33.175Z,94909.22
2023-03-04T10:51:44.183Z,94899.91
2023-03-04T10:54:51.564Z,94898.81
2023-03-04T10:57:58.045Z,94889.94
2023-03-04T11:01:05.115Z,94880.88
2023-03-04T11:04:19.449Z,94871.56
2023-03-04T11:07:24.226Z,94867.03
2023-03-04T11:10:32.776Z,94861.72
2023-03-04T11:13:36.443Z,94853.84
2023-03-04T11:16:39.868Z,94855.91
2023-03-04T11:19:48.440Z,94849.50
2023-03-04T11:22:53.616Z,94832.56
2023-03-04T11:26:03.364Z,94839.66
2023-03-04T11:29:14.827Z,94834.84
2023-03-04T11:32:23.801Z,94830.31
2023-03-04T11:35:32.366Z,94826.09
2023-03-04T11:38:40.969Z,94820.75
2023-03-04T11:41:53.705Z,94815.44
2023-03-04T11:44:57.261Z,94798.34
2023-03-04T11:48:10.460Z,94814.38
2023-03-04T11:51:20.522Z,94815.94
2023-03-04T11:54:33.732Z,94805.31
2023-03-04T11:57:53.260Z,94801.88
2023-03-04T12:01:02.648Z,94791.53
2023-03-04T12:04:29.379Z,94788.56
2023-03-04T12:07:47.894Z,94792.00
2023-03-04T12:10:57.924Z,94787.78
2023-03-04T12:14:23.815Z,94780.59
2023-03-04T12:17:45.763Z,94777.94
2023-03-04T12:21:09.724Z,94776.06
2023-03-04T12:24:35.611Z,94770.75
2023-03-04T12:27:46.251Z,94769.66
2023-03-04T12:31:05.888Z,94770.75
2023-03-04T12:34:32.212Z,94763.88
2023-03-04T12:38:04.311Z,94764.97
2023-03-04T12:41:24.327Z,94719.38
2023-03-04T12:44:28.757Z,94759.16
2023-03-04T12:47:42.476Z,94747.84
2023-03-04T12:50:59.524Z,94757.59
2023-03-04T12:54:14.355Z,94748.81
2023-03-04T12:57:21.134Z,94745.38
2023-03-04T13:00:36.341Z,94739.28
2023-03-04T13:03:49.518Z,94727.84
2023-03-04T13:07:12.675Z,94727.56
2023-03-04T13:10:20.075Z,94727.84
2023-03-04T13:13:39.817Z,94722.53
2023-03-04T13:16:45.163Z,94720.66
2023-03-04T13:19:57.529Z,94721.75
2023-03-04T13:23:01.994Z,94710.34
2023-03-04T13:26:24.905Z,94714.88
2023-03-04T13:29:37.149Z,94700.72
2023-03-04T13:32:43.244Z,94700.44
2023-03-04T13:36:02.201Z,94710.66
2023-03-04T13:39:24.750Z,94707.22
2023-03-04T13:42:41.538Z,94708.78
2023-03-04T13:45:44.837Z,94703.75
2023-03-04T13:49:04.164Z,94700.03
2023-03-04T13:52:44.436Z,94704.53
2023-03-04T13:56:06.117Z,94694.53
2023-03-04T13:59:22.548Z,94693.63
2023-03-04T14:02:27.311Z,94691.25
2023-03-04T14:05:30.761Z,94689.09
2023-03-04T14:08:33.868Z,94684.06
2023-03-04T14:11:42.830Z,94687.53
2023-03-04T14:14:50.484Z,94683.78
2023-03-04T14:17:56.146Z,94685.66
2023-03-04T14:21:02.002Z,94670.00
2023-03-04T14:24:08.098Z,94675.00
2023-03-04T14:27:15.393Z,94669.69
2023-03-04T14:30:35.496Z,94655.56
2023-03-04T14:33:48.167Z,94668.63
2023-03-04T14:36:51.313Z,94659.06
2023-03-04T14:39:57.736Z,94648.38
2023-03-04T14:43:07.767Z,94670.50
2023-03-04T14:46:15.761Z,94654.06
2023-03-04T14:49:19.073Z,94649.53
2023-03-04T14:52:34.320Z,94651.41
2023-03-04T14:55:37.495Z,94643.13
2023-03-04T14:58:54.445Z,94635.00
2023-03-04T15:02:19.108Z,94645.78
2023-03-04T15:05:26.647Z,94638.91
2023-03-04T15:08:34.871Z,94640.00
2023-03-04T15:11:48.142Z,94636.25
2023-03-04T15:14:54.954Z,94633.91
2023-03-04T15:18:01.596Z,94613.66
2023-03-04T15:21:06.581Z,94625.94
2023-03-04T15:24:11.784Z,94626.53
2023-03-04T15:27:17.109Z,94621.69
2023-03-04T15:30:24.849Z,94622.50
2023-03-04T15:33:28.097Z,94620.63
2023-03-04T15:36:31.284Z,94610.00
2023-03-04T15:39:34.574Z,94610.00
2023-03-04T15:42:37.845Z,94599.34
2023-03-04T15:45:43.175Z,94603.09
2023-03-04T15:48:47.170Z,94601.53
2023-03-04T15:51:50.937Z,94597.78
2023-03-04T15:54:54.104Z,94584.81
2023-03-04T15:57:58.729Z,94590.13
2023-03-04T16:01:03.654Z,94597.00
2023-03-04T16:04:07.092Z,94586.00
2023-03-04T16:07:17.593Z,94605.28
2023-03-04T16:10:26.178Z,94602.13
2023-03-04T16:13:29.452Z,94604.19
2023-03-04T16:16:34.063Z,94606.06
2023-03-04T16:19:37.198Z,94604.47
2023-03-04T16:22:41.107Z,94601.03
2023-03-04T16:25:45.573Z,94600.56
2023-03-04T16:28:48.759Z,94597.31
2023-03-04T16:31:55.581Z,94588.97
2023-03-04T16:34:58.761Z,94602.91
2023-03-04T16:38:01.971Z,94607.94
2023-03-04T16:41:05.220Z,94609.00
2023-03-04T16:44:09.361Z,94604.00
2023-03-04T16:47:13.894Z,94620.41
2023-03-04T16:50:18.188Z,94601.75
2023-03-04T16:53:30.302Z,94610.09
2023-03-04T16:56:33.776Z,94604.78
2023-03-04T16:59:36.944Z,94608.22
2023-03-04T17:02:41.855Z,94604.78
2023-03-04T17:05:45.497Z,94609.00
2023-03-04T17:08:48.751Z,94604.78
2023-03-04T17:11:53.195Z,94603.69
2023-03-04T17:14:56.387Z,94603.69
2023-03-04T17:18:00.993Z,94609.63
2023-03-04T17:21:05.210Z,94612.75
2023-03-04T17:24:11.348Z,94611.97
2023-03-04T17:27:14.655Z,94611.97
2023-03-04T17:30:18.314Z,94612.75
2023-03-04T17:33:23.212Z,94616.50
2023-03-04T17:36:26.495Z,94624.47
2023-03-04T17:39:29.708Z,94626.03
2023-03-04T17:42:33.253Z,94618.06
2023-03-04T17:45:36.643Z,94622.59
2023-03-04T17:48:41.970Z,94622.59
2023-03-04T17:51:45.318Z,94627.13
2023-03-04T17:54:48.623Z,94621.81
2023-03-04T17:57:53.240Z,94622.59
2023-03-04T18:01:02.259Z,94629.78
2023-03-04T18:04:07.098Z,94621.03
2023-03-04T18:07:10.273Z,94625.56
2023-03-04T18:10:13.826Z,94630.56
2023-03-04T18:13:16.953Z,94627.44
2023-03-04T18:16:23.627Z,94627.13
2023-03-04T18:19:28.200Z,94625.56
2023-03-04T18:22:31.689Z,94623.50
2023-03-04T18:25:34.890Z,94626.03
2023-03-04T18:28:38.050Z,94623.38
2023-03-04T18:31:41.403Z,94627.91
2023-03-04T18:34:45.925Z,94629.78
2023-03-04T18:37:49.209Z,94627.13
2023-03-04T18:40:53.160Z,94617.28
2023-03-04T18:43:56.446Z,94624.47
2023-03-04T18:46:59.875Z,94622.59
2023-03-04T18:50:04.594Z,94620.25
2023-03-04T18:53:07.729Z,94620.72
2023-03-04T18:56:14.635Z,94613.38
2023-03-04T18:59:21.515Z,94612.38
2023-03-04T19:02:29.564Z,94624.00
2023-03-04T19:05:35.103Z,94622.59
2023-03-04T19:08:38.239Z,94627.91
2023-03-04T19:11:41.465Z,94627.13
2023-03-04T19:14:44.624Z,94629.00
2023-03-04T19:17:47.760Z,94627.91
2023-03-04T19:20:52.274Z,94625.25
2023-03-04T19:23:55.484Z,94622.91
2023-03-04T19:26:58.993Z,94623.78
2023-03-04T19:30:02.333Z,94626.03
2023-03-04T19:33:05.615Z,94621.81
2023-03-04T19:36:11.359Z,94625.25
2023-03-04T19:39:15.827Z,94629.78
2023-03-04T19:42:19.385Z,94630.56
2023-03-04T19:45:22.490Z,94635.88
2023-03-04T19:48:25.797Z,94639.31
2023-03-04T19:51:32.289Z,94631.34
2023-03-04T19:54:35.456Z,94629.78
2023-03-04T19:57:38.623Z,94638.53
2023-03-04T20:00:41.789Z,94635.09
2023-03-04T20:03:44.869Z,94633.84
2023-03-04T20:06:51.433Z,94629.78
2023-03-04T20:09:56.422Z,94638.53
2023-03-04T20:13:00.596Z,94635.09
2023-03-04T20:16:08.565Z,94621.81
2023-03-04T20:19:14.542Z,94621.03
2023-03-04T20:22:25.821Z,94611.41
2023-03-04T20:25:38.833Z,94626.34
2023-03-04T20:28:42.028Z,94629.31
2023-03-04T20:31:46.610Z,94628.22
2023-03-04T20:34:54.125Z,94623.63
2023-03-04T20:37:58.603Z,94637.75
2023-03-04T20:41:03.510Z,94634.63
2023-03-04T20:44:08.719Z,94643.06
2023-03-04T20:47:11.923Z,94636.19
2023-03-04T20:50:16.495Z,94636.19
2023-03-04T20:53:20.991Z,94636.19
2023-03-04T20:56:24.300Z,94633.53
2023-03-04T20:59:27.762Z,94627.13
2023-03-04T21:02:30.945Z,94630.09
2023-03-04T21:05:34.219Z,94630.88
2023-03-04T21:08:38.801Z,94630.09
2023-03-04T21:11:42.642Z,94622.41
2023-03-04T21:14:46.079Z,94610.03
2023-03-04T21:17:49.923Z,94617.09
2023-03-04T21:20:53.520Z,94614.25
2023-03-04T21:23:59.800Z,94611.28
2023-03-04T21:27:04.354Z,94617.91
2023-03-04T21:30:09.187Z,94612.88
2023-03-04T21:33:16.724Z,94613.38
2023-03-04T21:36:19.947Z,94612.88
2023-03-04T21:39:26.245Z,94612.28
2023-03-04T21:42:29.746Z,94606.28
2023-03-04T21:45:34.997Z,94606.97
2023-03-04T21:48:38.672Z,94605.69
2023-03-04T21:51:42.348Z,94602.75
2023-03-04T21:54:46.900Z,94600.09
2023-03-04T21:57:50.099Z,94593.19
2023-03-04T22:00:53.349Z,94595.06
2023-03-04T22:03:56.708Z,94590.25
2023-03-04T22:06:59.927Z,94593.97
2023-03-04T22:10:06.757Z,94595.84
2023-03-04T22:13:11.280Z,94597.44
2023-03-04T22:16:14.532Z,94575.75
2023-03-04T22:19:17.768Z,94592.91
2023-03-04T22:22:20.947Z,94597.44
2023-03-04T22:25:25.572Z,94592.13
2023-03-04T22:28:29.892Z,94593.97
2023-03-04T22:31:34.893Z,94591.03
2023-03-04T22:34:38.090Z,94593.69
2023-03-04T22:37:41.321Z,94584.13
2023-03-04T22:40:45.856Z,94579.13
2023-03-04T22:43:49.498Z,94591.81
2023-03-04T22:46:52.949Z,94593.38
2023-03-04T22:49:56.134Z,94584.63
2023-03-04T22:52:59.524Z,94584.63
2023-03-04T22:56:04.137Z,94583.06
2023-03-04T22:59:07.316Z,94578.03
2023-03-04T23:02:10.545Z,94575.88
2023-03-04T23:05:14.094Z,94576.66
2023-03-04T23:08:17.290Z,94580.09
2023-03-04T23:11:25.484Z,94555.16
2023-03-04T23:14:28.789Z,94580.09
2023-03-04T23:17:31.909Z,94567.41
2023-03-04T23:20:35.052Z,94568.69
2023-03-04T23:23:38.982Z,94564.47
2023-03-04T23:26:44.475Z,94568.69
2023-03-04T23:29:47.637Z,94567.13
2023-03-04T23:32:50.707Z,94565.53
2023-03-04T23:35:53.926Z,94560.72
2023-03-04T23:38:57.730Z,94544.53
2023-03-04T23:42:02.347Z,94547.06
2023-03-04T23:45:06.264Z,94551.97
2023-03-04T23:48:09.392Z,94551.16
2023-03-04T23:51:12.647Z,94550.09
2023-03-04T23:54:16.304Z,94545.84
2023-03-04T23:57:20.792Z,94556.50
